Time;durP1;ratioP1;P1;durP2;ratioP2;P2;SDS_P1;SDS_P2;PMS_P1;PMS_P2;Temp;Humidity;BMP_temperature;BMP_pressure;BME280_temperature;BME280_humidity;BME280_pressure;Samples;Min_cycle;Max_cycle;Signal;HPM_P1;HPM_P2
2021/03/08 00:01:54;;;;;;;224.73;114.15;;;1.20;90.50;;;;;;5037673;28;20026;-67
2021/03/08 00:04:20;;;;;;;248.15;122.32;;;1.30;90.50;;;;;;5039364;28;20494;-67
2021/03/08 00:06:46;;;;;;;236.30;119.43;;;1.40;90.10;;;;;;5038457;28;20522;-67
2021/03/08 00:09:12;;;;;;;166.55;88.60;;;1.40;90.10;;;;;;5040570;28;20026;-73
2021/03/08 00:11:41;;;;;;;158.80;88.03;;;1.30;90.00;;;;;;5040363;28;20030;-76
2021/03/08 00:14:07;;;;;;;171.00;90.03;;;1.20;90.20;;;;;;5041088;28;20021;-67
2021/03/08 00:16:32;;;;;;;181.80;96.90;;;1.00;90.60;;;;;;5039775;28;20033;-68
2021/03/08 00:18:58;;;;;;;181.10;97.57;;;1.00;90.80;;;;;;5040314;28;20100;-67
2021/03/08 00:21:24;;;;;;;183.82;99.45;;;1.00;91.10;;;;;;5039479;28;20053;-73
2021/03/08 00:23:50;;;;;;;178.82;99.82;;;1.10;90.90;;;;;;5039009;28;20025;-75
2021/03/08 00:26:16;;;;;;;189.07;101.90;;;1.00;90.90;;;;;;5038084;28;20120;-71
2021/03/08 00:28:42;;;;;;;192.93;105.10;;;0.80;91.30;;;;;;5038951;28;20417;-78
2021/03/08 00:31:08;;;;;;;205.38;107.97;;;0.70;91.50;;;;;;5039304;28;20032;-68
2021/03/08 00:33:34;;;;;;;189.48;102.88;;;0.70;91.80;;;;;;5039650;28;20017;-77
2021/03/08 00:36:00;;;;;;;222.65;115.47;;;0.80;91.50;;;;;;5037592;28;20029;-78
2021/03/08 00:38:26;;;;;;;276.85;129.07;;;0.90;91.40;;;;;;5038544;28;20029;-78
2021/03/08 00:40:52;;;;;;;302.30;135.60;;;0.80;91.50;;;;;;5038705;28;20379;-71
2021/03/08 00:43:18;;;;;;;294.05;131.00;;;0.90;91.30;;;;;;5039837;28;20360;-68
2021/03/08 00:45:45;;;;;;;261.98;122.07;;;1.00;91.20;;;;;;5038473;28;20084;-67
2021/03/08 00:48:11;;;;;;;252.65;119.38;;;1.00;90.80;;;;;;5039201;28;20024;-77
2021/03/08 00:50:37;;;;;;;260.05;121.07;;;1.00;91.30;;;;;;5040449;28;20053;-78
2021/03/08 00:53:03;;;;;;;234.63;112.28;;;0.90;91.10;;;;;;5038712;28;20032;-67
2021/03/08 00:55:29;;;;;;;217.35;107.15;;;1.00;90.90;;;;;;5039233;28;20030;-69
2021/03/08 00:57:54;;;;;;;227.20;108.20;;;0.90;90.80;;;;;;5038995;28;20048;-77
2021/03/08 01:00:26;;;;;;;230.48;112.05;;;0.90;91.50;;;;;;5037797;28;20375;-67
2021/03/08 01:02:53;;;;;;;220.32;107.07;;;0.90;91.30;;;;;;5036110;28;20022;-77
2021/03/08 01:05:20;;;;;;;219.40;106.38;;;0.80;91.10;;;;;;5038707;28;20494;-67
2021/03/08 01:07:46;;;;;;;191.70;89.13;;;0.80;91.40;;;;;;5038183;28;20017;-77
2021/03/08 01:10:18;;;;;;;155.07;79.95;;;0.80;91.10;;;;;;5038703;28;20037;-78
2021/03/08 01:12:44;;;;;;;176.02;84.38;;;0.80;91.30;;;;;;5038363;28;20075;-67
2021/03/08 01:15:11;;;;;;;192.48;93.18;;;0.70;91.60;;;;;;5041372;28;20068;-74
2021/03/08 01:17:37;;;;;;;192.10;92.10;;;0.70;91.60;;;;;;5038011;28;20079;-76
2021/03/08 01:20:09;;;;;;;188.45;94.30;;;0.80;91.50;;;;;;5040161;28;20040;-78
2021/03/08 01:22:36;;;;;;;212.20;102.88;;;0.70;91.70;;;;;;5038090;28;20054;-69
2021/03/08 01:25:08;;;;;;;209.05;99.45;;;0.60;91.80;;;;;;5039613;28;20049;-67
2021/03/08 01:27:34;;;;;;;208.85;99.78;;;0.60;91.90;;;;;;5036981;28;20033;-74
2021/03/08 01:30:00;;;;;;;255.05;113.78;;;0.70;91.60;;;;;;5037891;28;20025;-75
2021/03/08 01:32:25;;;;;;;242.75;109.75;;;0.60;91.70;;;;;;5037286;28;20068;-77
2021/03/08 01:34:51;;;;;;;217.52;101.70;;;0.50;91.90;;;;;;5038407;28;20510;-69
2021/03/08 01:37:17;;;;;;;240.60;105.57;;;0.40;92.00;;;;;;5039087;28;20032;-75
2021/03/08 01:39:43;;;;;;;180.95;89.10;;;0.30;92.50;;;;;;5039231;28;20028;-67
2021/03/08 01:42:09;;;;;;;168.35;87.70;;;0.20;92.60;;;;;;5037210;28;20047;-69
2021/03/08 01:44:35;;;;;;;163.15;82.45;;;0.10;93.00;;;;;;5039475;28;20026;-69
2021/03/08 01:47:01;;;;;;;162.07;77.80;;;0.20;92.90;;;;;;5039048;28;20012;-77
2021/03/08 01:49:27;;;;;;;197.40;85.28;;;0.40;92.40;;;;;;5037341;28;20049;-77
2021/03/08 01:51:53;;;;;;;184.10;82.85;;;0.40;92.20;;;;;;5037874;28;20137;-67
2021/03/08 01:54:19;;;;;;;187.98;82.68;;;0.40;92.30;;;;;;5039165;28;20034;-67
2021/03/08 01:56:44;;;;;;;175.68;82.60;;;0.50;92.00;;;;;;5037431;28;20610;-70
2021/03/08 01:59:10;;;;;;;172.68;80.07;;;0.50;92.10;;;;;;5039084;28;20026;-77
2021/03/08 02:01:36;;;;;;;173.80;78.88;;;0.50;92.10;;;;;;5037896;28;20357;-68
2021/03/08 02:04:03;;;;;;;160.73;76.00;;;0.60;92.00;;;;;;5038787;28;20037;-77
2021/03/08 02:06:29;;;;;;;157.45;76.35;;;0.50;91.90;;;;;;5040803;28;20063;-67
2021/03/08 02:08:55;;;;;;;152.63;77.25;;;0.40;92.10;;;;;;5039576;28;20030;-67
2021/03/08 02:11:21;;;;;;;157.95;76.38;;;0.50;92.00;;;;;;5037234;28;20128;-77
2021/03/08 02:14:11;;;;;;;151.02;76.57;;;0.50;92.00;;;;;;5039537;28;20037;-68
2021/03/08 02:17:09;;;;;;;169.70;83.80;;;0.60;92.10;;;;;;5037656;28;20021;-77
2021/03/08 02:20:12;;;;;;;155.50;80.88;;;0.60;91.70;;;;;;5034555;28;20038;-78
2021/03/08 02:23:15;;;;;;;152.85;77.18;;;0.60;91.80;;;;;;5037791;28;20037;-78
2021/03/08 02:25:59;;;;;;;182.50;89.75;;;0.60;91.90;;;;;;5039248;28;20034;-77
2021/03/08 02:28:46;;;;;;;138.27;74.33;;;0.40;91.80;;;;;;5038425;28;20363;-68
2021/03/08 02:31:15;;;;;;;127.75;70.68;;;0.30;92.20;;;;;;5038141;28;20270;-77
2021/03/08 02:33:49;;;;;;;140.65;75.88;;;0.10;92.40;;;;;;5039301;28;20022;-77
2021/03/08 02:36:17;;;;;;;131.43;70.95;;;0.00;92.70;;;;;;5038630;28;20032;-71
2021/03/08 02:38:49;;;;;;;128.02;70.88;;;0.00;92.70;;;;;;5038507;28;20084;-76
2021/03/08 02:41:20;;;;;;;134.57;73.00;;;0.10;92.80;;;;;;5041647;28;20112;-70
2021/03/08 02:44:00;;;;;;;133.77;69.78;;;-0.10;93.20;;;;;;5044906;28;20467;-78
2021/03/08 02:46:31;;;;;;;131.20;70.68;;;0.00;93.40;;;;;;5041327;28;20042;-66
2021/03/08 02:49:19;;;;;;;143.55;75.97;;;-0.10;93.20;;;;;;5038461;28;20054;-76
2021/03/08 02:52:00;;;;;;;144.30;78.05;;;0.00;93.00;;;;;;5040285;28;20022;-67
2021/03/08 02:54:30;;;;;;;135.98;73.60;;;-0.20;93.30;;;;;;5041253;28;20014;-71
2021/03/08 02:57:00;;;;;;;140.05;76.43;;;-0.30;93.50;;;;;;5042166;28;20025;-68
2021/03/08 02:59:28;;;;;;;136.77;74.78;;;-0.30;93.70;;;;;;5042306;28;20040;-77
2021/03/08 03:01:54;;;;;;;129.10;73.57;;;-0.20;93.20;;;;;;5041786;28;20075;-68
2021/03/08 03:04:23;;;;;;;136.48;75.28;;;-0.10;93.20;;;;;;5042412;28;20027;-67
2021/03/08 03:06:50;;;;;;;139.43;74.85;;;-0.20;93.50;;;;;;5043883;28;20029;-67
2021/03/08 03:09:18;;;;;;;141.25;76.80;;;-0.10;93.00;;;;;;5041901;28;20012;-75
2021/03/08 03:11:51;;;;;;;143.27;78.30;;;-0.10;93.50;;;;;;5042428;28;20017;-67
2021/03/08 03:14:17;;;;;;;146.38;79.60;;;-0.20;93.20;;;;;;5041114;28;20013;-75
2021/03/08 03:16:46;;;;;;;145.50;79.40;;;-0.20;93.40;;;;;;5041394;28;20021;-69
2021/03/08 03:19:14;;;;;;;152.20;83.43;;;-0.10;93.00;;;;;;5042432;28;20109;-68
2021/03/08 03:21:44;;;;;;;177.65;91.28;;;-0.10;92.40;;;;;;5040205;28;20045;-68
2021/03/08 03:24:10;;;;;;;177.07;93.95;;;-0.10;92.50;;;;;;5041233;28;20039;-77
2021/03/08 03:26:36;;;;;;;177.60;92.78;;;-0.10;92.70;;;;;;5040158;28;20014;-67
2021/03/08 03:29:04;;;;;;;152.50;83.60;;;-0.10;92.80;;;;;;5041959;28;20029;-69
2021/03/08 03:31:32;;;;;;;131.23;74.03;;;-0.20;92.70;;;;;;5039033;28;20112;-68
2021/03/08 03:34:00;;;;;;;132.85;71.20;;;-0.10;93.00;;;;;;5041959;28;20021;-76
2021/03/08 03:36:29;;;;;;;103.05;58.40;;;0.00;92.90;;;;;;5042970;28;20049;-77
2021/03/08 03:38:57;;;;;;;105.13;60.17;;;0.00;92.60;;;;;;5042674;28;20026;-68
2021/03/08 03:41:23;;;;;;;117.82;66.53;;;-0.10;92.40;;;;;;5042290;28;20026;-69
2021/03/08 03:43:49;;;;;;;109.93;61.55;;;-0.30;92.50;;;;;;5040887;28;20022;-67
2021/03/08 03:46:15;;;;;;;107.45;57.80;;;-0.40;93.00;;;;;;5041204;28;20031;-76
2021/03/08 03:48:41;;;;;;;117.72;62.13;;;-0.40;92.90;;;;;;5040831;28;20391;-66
2021/03/08 03:51:06;;;;;;;98.25;53.65;;;-0.30;92.80;;;;;;5039448;28;20021;-66
2021/03/08 03:53:32;;;;;;;95.55;52.92;;;-0.30;92.60;;;;;;5040992;28;20031;-70
2021/03/08 03:55:58;;;;;;;95.72;52.53;;;-0.40;92.80;;;;;;5041750;28;20487;-68
2021/03/08 03:58:24;;;;;;;90.90;51.03;;;-0.40;92.60;;;;;;5040742;28;20025;-69
2021/03/08 04:01:07;;;;;;;88.72;49.65;;;-0.40;93.00;;;;;;5041398;28;20025;-70
2021/03/08 04:03:58;;;;;;;82.00;46.63;;;-0.30;92.90;;;;;;5040644;28;20375;-70
2021/03/08 04:06:31;;;;;;;79.35;45.00;;;-0.40;93.00;;;;;;5037897;28;20029;-68
2021/03/08 04:08:58;;;;;;;90.10;46.88;;;-0.30;93.00;;;;;;5040765;28;20025;-74
2021/03/08 04:11:33;;;;;;;92.22;51.70;;;-0.40;92.50;;;;;;5039924;28;20104;-67
2021/03/08 04:14:02;;;;;;;99.82;54.70;;;-0.40;92.10;;;;;;5040404;28;20025;-67
2021/03/08 04:16:30;;;;;;;97.85;54.22;;;-0.50;92.40;;;;;;5039212;28;20032;-73
2021/03/08 04:18:57;;;;;;;106.53;56.50;;;-0.50;93.00;;;;;;5041416;28;20404;-67
2021/03/08 04:21:24;;;;;;;133.32;69.45;;;-0.50;93.10;;;;;;5041122;28;20038;-77
2021/03/08 04:23:51;;;;;;;117.95;63.15;;;-0.50;93.40;;;;;;5039491;28;20030;-71
2021/03/08 04:26:19;;;;;;;109.38;59.50;;;-0.50;93.10;;;;;;5041556;28;20475;-69
2021/03/08 04:28:46;;;;;;;111.03;58.40;;;-0.60;92.90;;;;;;5042025;28;20036;-69
2021/03/08 04:31:13;;;;;;;120.72;61.28;;;-0.70;93.10;;;;;;5040882;28;20028;-77
2021/03/08 04:33:41;;;;;;;118.72;63.42;;;-0.80;93.40;;;;;;5039281;28;20021;-67
2021/03/08 04:36:08;;;;;;;151.65;79.55;;;-0.90;93.60;;;;;;5038078;28;20471;-67
2021/03/08 04:38:34;;;;;;;145.57;76.63;;;-0.90;93.90;;;;;;5040898;28;20040;-68
2021/03/08 04:41:01;;;;;;;266.10;147.13;;;-1.00;94.30;;;;;;5040410;28;20032;-76
2021/03/08 04:43:28;;;;;;;132.48;70.68;;;-0.90;94.20;;;;;;5038162;28;20025;-68
2021/03/08 04:45:57;;;;;;;123.40;66.32;;;-1.10;94.50;;;;;;5040558;28;20025;-67
2021/03/08 04:48:27;;;;;;;111.22;58.22;;;-1.20;94.70;;;;;;5040636;28;20045;-76
2021/03/08 04:50:53;;;;;;;101.53;53.72;;;-1.20;94.80;;;;;;5040099;28;20089;-70
2021/03/08 04:53:20;;;;;;;99.80;52.35;;;-1.20;94.80;;;;;;5039618;28;20033;-67
2021/03/08 04:55:48;;;;;;;94.53;49.33;;;-1.20;94.80;;;;;;5039029;28;20025;-75
2021/03/08 04:58:14;;;;;;;93.25;49.53;;;-1.20;94.50;;;;;;5041376;28;20017;-72
2021/03/08 05:00:40;;;;;;;94.90;53.10;;;-1.20;94.50;;;;;;5039296;28;20080;-71
2021/03/08 05:03:07;;;;;;;92.60;52.15;;;-1.10;94.50;;;;;;5038916;28;20120;-68
2021/03/08 05:05:33;;;;;;;86.90;47.45;;;-1.00;94.40;;;;;;5040948;28;20022;-68
2021/03/08 05:08:05;;;;;;;83.72;47.20;;;-1.00;94.40;;;;;;5039790;28;20059;-67
2021/03/08 05:10:33;;;;;;;93.45;50.33;;;-1.00;94.30;;;;;;5040393;28;20045;-77
2021/03/08 05:13:00;;;;;;;89.00;50.97;;;-1.00;94.00;;;;;;5039834;28;20060;-67
2021/03/08 05:15:28;;;;;;;95.80;52.60;;;-1.00;94.40;;;;;;5038097;28;20025;-68
2021/03/08 05:17:57;;;;;;;83.82;48.28;;;-1.10;94.30;;;;;;5040220;28;20048;-77
2021/03/08 05:20:24;;;;;;;84.25;45.67;;;-1.00;94.20;;;;;;5039155;28;20053;-77
2021/03/08 05:22:50;;;;;;;88.38;48.08;;;-1.00;94.20;;;;;;5040017;28;20033;-71
2021/03/08 05:25:19;;;;;;;83.20;46.80;;;-1.00;94.20;;;;;;5040820;28;20428;-75
2021/03/08 05:27:46;;;;;;;89.22;49.70;;;-0.90;93.40;;;;;;5040636;28;20033;-70
2021/03/08 05:30:18;;;;;;;128.13;63.15;;;-0.90;93.40;;;;;;5038383;28;20488;-78
2021/03/08 05:32:53;;;;;;;134.02;68.40;;;-0.90;93.50;;;;;;5039258;28;20026;-68
2021/03/08 05:35:22;;;;;;;134.65;67.75;;;-0.90;93.40;;;;;;5040323;28;20021;-73
2021/03/08 05:37:48;;;;;;;128.40;67.93;;;-1.10;93.60;;;;;;5040995;28;20040;-71
2021/03/08 05:40:29;;;;;;;122.90;63.33;;;-1.10;94.00;;;;;;5041048;28;20048;-67
2021/03/08 05:43:04;;;;;;;118.13;62.03;;;-1.00;93.80;;;;;;5039036;28;20097;-72
2021/03/08 05:45:36;;;;;;;124.05;65.32;;;-1.00;93.90;;;;;;5039846;28;20060;-67
2021/03/08 05:48:47;;;;;;;150.73;76.45;;;-1.00;94.40;;;;;;5040103;28;20033;-67
2021/03/08 05:51:48;;;;;;;158.18;83.00;;;-1.00;94.30;;;;;;5020687;28;20045;-67
2021/03/08 05:54:29;;;;;;;151.35;79.68;;;-0.90;94.40;;;;;;5030735;28;20034;-69
2021/03/08 05:57:31;;;;;;;161.18;85.38;;;-0.80;94.10;;;;;;5039925;28;20025;-77
2021/03/08 06:00:08;;;;;;;167.45;90.57;;;-0.80;94.30;;;;;;5040293;28;20502;-76
2021/03/08 06:02:55;;;;;;;171.35;94.60;;;-0.70;94.30;;;;;;5040798;28;20029;-67
2021/03/08 06:05:55;;;;;;;175.80;96.80;;;-0.50;93.90;;;;;;5039956;28;20021;-76
2021/03/08 06:08:26;;;;;;;175.85;96.07;;;-0.40;94.00;;;;;;5038606;28;20025;-76
2021/03/08 06:11:09;;;;;;;173.35;95.57;;;-0.40;94.00;;;;;;5039561;28;20065;-74
2021/03/08 06:13:56;;;;;;;182.75;99.63;;;-0.40;94.20;;;;;;5038889;28;20029;-73
2021/03/08 06:16:33;;;;;;;191.27;104.18;;;-0.30;94.20;;;;;;5043618;28;20047;-68
2021/03/08 06:19:02;;;;;;;253.23;129.20;;;-0.10;94.30;;;;;;5043825;28;20010;-68
2021/03/08 06:21:32;;;;;;;266.67;131.32;;;-0.10;94.10;;;;;;5043037;28;20115;-73
2021/03/08 06:23:58;;;;;;;220.73;118.38;;;0.00;94.00;;;;;;5040940;28;20483;-77
2021/03/08 06:26:26;;;;;;;217.02;117.55;;;0.10;94.30;;;;;;5042655;28;20041;-78
2021/03/08 06:28:53;;;;;;;204.40;115.32;;;0.30;94.00;;;;;;5044200;28;20024;-78
2021/03/08 06:31:19;;;;;;;210.18;115.25;;;0.40;94.10;;;;;;5041711;28;20052;-74
2021/03/08 06:33:45;;;;;;;195.15;108.15;;;0.60;93.90;;;;;;5043804;28;20068;-67
2021/03/08 06:36:12;;;;;;;185.35;103.45;;;0.70;93.60;;;;;;5042179;28;20001;-77
2021/03/08 06:38:38;;;;;;;155.57;90.00;;;0.80;94.10;;;;;;5043152;28;20379;-68
2021/03/08 06:41:07;;;;;;;143.55;84.00;;;0.90;93.10;;;;;;5041621;28;20045;-67
2021/03/08 06:43:35;;;;;;;129.82;73.18;;;1.00;93.90;;;;;;5042246;28;20112;-67
2021/03/08 06:46:03;;;;;;;139.73;69.72;;;1.20;92.00;;;;;;5042233;28;20048;-74
2021/03/08 06:48:29;;;;;;;104.38;56.90;;;1.30;91.90;;;;;;5042490;28;20025;-68
2021/03/08 06:51:10;;;;;;;97.05;55.80;;;1.40;92.60;;;;;;5041605;28;20041;-76
2021/03/08 06:53:36;;;;;;;84.75;50.88;;;1.60;93.40;;;;;;5041407;28;20022;-75
2021/03/08 06:56:27;;;;;;;77.80;46.45;;;1.50;92.70;;;;;;5040621;28;20068;-75
2021/03/08 06:59:08;;;;;;;69.68;42.90;;;1.50;93.80;;;;;;5040780;28;20037;-68
2021/03/08 07:01:39;;;;;;;71.15;41.20;;;1.60;92.40;;;;;;5041409;28;20029;-69
2021/03/08 07:04:13;;;;;;;62.70;41.03;;;1.70;93.70;;;;;;5041202;28;20037;-72
2021/03/08 07:06:39;;;;;;;78.68;47.42;;;1.70;93.00;;;;;;5037618;28;20022;-67
2021/03/08 07:09:15;;;;;;;76.38;44.50;;;1.90;93.50;;;;;;5037571;28;20033;-68
2021/03/08 07:11:41;;;;;;;62.45;39.47;;;2.20;93.10;;;;;;5040749;28;20022;-72
2021/03/08 07:14:22;;;;;;;63.53;39.22;;;2.30;92.20;;;;;;5042518;28;20029;-71
2021/03/08 07:16:48;;;;;;;71.60;43.03;;;2.20;93.20;;;;;;5038031;28;20505;-65
2021/03/08 07:19:17;;;;;;;69.20;38.97;;;2.30;93.10;;;;;;5037266;28;20021;-71
2021/03/08 07:21:50;;;;;;;61.58;37.70;;;2.50;92.00;;;;;;5025416;28;20021;-66
2021/03/08 07:24:16;;;;;;;65.88;39.53;;;2.50;91.40;;;;;;5030095;28;20028;-66
2021/03/08 07:27:08;;;;;;;77.85;46.80;;;2.90;93.40;;;;;;5033195;28;20020;-67
2021/03/08 07:29:34;;;;;;;74.22;43.88;;;3.00;92.00;;;;;;5033473;28;20050;-69
2021/03/08 07:32:00;;;;;;;79.50;45.78;;;3.10;91.30;;;;;;5039131;28;20033;-72
2021/03/08 07:34:26;;;;;;;68.97;42.47;;;3.10;91.30;;;;;;5035366;28;20124;-67
2021/03/08 07:37:00;;;;;;;66.88;40.28;;;3.20;92.00;;;;;;5036178;28;20479;-72
2021/03/08 07:39:26;;;;;;;53.65;34.50;;;3.40;90.80;;;;;;5039098;28;20079;-66
2021/03/08 07:41:55;;;;;;;55.72;35.15;;;3.50;91.20;;;;;;5038011;28;20025;-74
2021/03/08 07:44:27;;;;;;;52.53;33.70;;;3.80;91.20;;;;;;5041199;28;20025;-66
2021/03/08 07:47:14;;;;;;;51.17;33.53;;;3.70;90.10;;;;;;5039347;28;20028;-75
2021/03/08 07:49:40;;;;;;;49.45;32.88;;;3.90;90.00;;;;;;5038456;28;20057;-75
2021/03/08 07:52:08;;;;;;;48.20;32.15;;;4.00;89.10;;;;;;5038807;28;20028;-75
2021/03/08 07:54:56;;;;;;;50.60;31.13;;;4.00;88.50;;;;;;5036760;28;20026;-68
2021/03/08 07:57:25;;;;;;;47.00;30.95;;;4.20;88.60;;;;;;5032942;28;20458;-73
2021/03/08 07:59:51;;;;;;;72.35;42.45;;;4.40;90.10;;;;;;5032885;28;20475;-68
2021/03/08 08:02:17;;;;;;;52.33;34.67;;;4.50;88.70;;;;;;5034062;28;20039;-68
2021/03/08 08:04:43;;;;;;;43.00;27.67;;;4.90;88.50;;;;;;5033869;28;20010;-68
2021/03/08 08:07:12;;;;;;;203.35;96.97;;;5.00;83.90;;;;;;5034273;28;20037;-68
2021/03/08 08:09:43;;;;;;;86.78;48.13;;;5.20;83.80;;;;;;5035570;28;20080;-68
2021/03/08 08:12:14;;;;;;;60.30;36.22;;;5.60;84.40;;;;;;5041326;28;20035;-66
2021/03/08 08:14:41;;;;;;;49.67;31.90;;;5.70;82.40;;;;;;5038991;28;20029;-74
2021/03/08 08:17:09;;;;;;;86.20;52.58;;;5.80;81.20;;;;;;5039778;28;20021;-66
2021/03/08 08:19:46;;;;;;;54.20;35.63;;;5.90;80.80;;;;;;5038621;28;20026;-65
2021/03/08 08:22:23;;;;;;;57.42;37.63;;;6.10;79.60;;;;;;5039785;28;20475;-69
2021/03/08 08:24:52;;;;;;;63.08;42.80;;;6.50;77.00;;;;;;5039006;28;20056;-69
2021/03/08 08:27:19;;;;;;;46.92;30.83;;;6.70;76.10;;;;;;5039302;28;20403;-72
2021/03/08 08:29:46;;;;;;;81.30;55.00;;;7.00;77.00;;;;;;5037412;28;20112;-66
2021/03/08 08:32:13;;;;;;;54.55;33.35;;;7.40;78.50;;;;;;5036428;28;20029;-75
2021/03/08 08:34:41;;;;;;;42.33;29.13;;;7.00;71.30;;;;;;5036429;28;20053;-68
2021/03/08 08:37:14;;;;;;;42.55;28.58;;;7.20;72.50;;;;;;5038820;28;20150;-70
2021/03/08 08:40:04;;;;;;;40.90;26.55;;;7.10;71.50;;;;;;5037368;28;20033;-76
2021/03/08 08:42:32;;;;;;;40.08;27.33;;;7.70;72.90;;;;;;5036936;28;20045;-67
2021/03/08 08:44:59;;;;;;;39.35;27.52;;;8.00;70.90;;;;;;5032267;28;20037;-76
2021/03/08 08:47:29;;;;;;;54.25;32.30;;;8.10;68.80;;;;;;5023013;28;20384;-70
2021/03/08 08:50:17;;;;;;;60.78;34.63;;;7.90;70.70;;;;;;5035761;28;20399;-75
2021/03/08 08:52:51;;;;;;;40.65;27.38;;;8.40;67.30;;;;;;5033031;28;20041;-67
2021/03/08 08:55:22;;;;;;;56.85;31.33;;;8.00;67.10;;;;;;5023866;28;20021;-74
2021/03/08 08:58:16;;;;;;;62.05;38.35;;;8.30;68.50;;;;;;5023083;28;20487;-66
2021/03/08 09:00:43;;;;;;;46.77;31.83;;;8.20;62.80;;;;;;5027622;28;20013;-72
2021/03/08 09:03:17;;;;;;;39.22;27.38;;;7.90;63.10;;;;;;5031199;28;20387;-67
2021/03/08 09:05:43;;;;;;;41.13;25.02;;;8.40;64.70;;;;;;5039301;28;20042;-67
2021/03/08 09:08:31;;;;;;;49.50;33.05;;;8.60;62.90;;;;;;5041234;28;20022;-68
2021/03/08 09:11:00;;;;;;;46.05;28.75;;;;;;;;;;5039771;28;20079;-66
2021/03/08 09:13:28;;;;;;;71.15;39.03;;;9.50;62.10;;;;;;5038419;28;20047;-74
2021/03/08 09:15:55;;;;;;;34.70;25.02;;;9.70;61.40;;;;;;5036620;28;20029;-74
2021/03/08 09:18:34;;;;;;;35.78;23.80;;;9.10;61.60;;;;;;5037115;28;20492;-73
2021/03/08 09:21:21;;;;;;;55.30;31.52;;;9.50;62.20;;;;;;5035349;28;20026;-70
2021/03/08 09:23:47;;;;;;;50.83;34.33;;;10.00;58.10;;;;;;5037901;28;20061;-66
2021/03/08 09:26:14;;;;;;;46.72;30.88;;;9.50;57.60;;;;;;5040888;28;20013;-73
2021/03/08 09:28:50;;;;;;;44.03;28.73;;;9.10;58.20;;;;;;5041893;28;20025;-72
2021/03/08 09:31:20;;;;;;;28.45;20.88;;;9.40;57.10;;;;;;5042327;28;20040;-73
2021/03/08 09:33:47;;;;;;;48.13;33.63;;;9.50;55.20;;;;;;5042257;28;20067;-67
2021/03/08 09:36:13;;;;;;;44.78;32.20;;;9.50;56.00;;;;;;5044774;28;20013;-75
2021/03/08 09:38:39;;;;;;;32.25;23.52;;;9.80;55.60;;;;;;5037782;28;20032;-64
2021/03/08 09:41:05;;;;;;;32.17;22.33;;;9.80;54.50;;;;;;5037950;28;20049;-67
2021/03/08 09:43:33;;;;;;;30.75;22.30;;;9.90;55.10;;;;;;5038851;28;20094;-73
2021/03/08 09:46:10;;;;;;;30.55;20.17;;;10.00;56.00;;;;;;5039686;28;20029;-67
2021/03/08 09:48:37;;;;;;;64.57;34.47;;;10.40;55.80;;;;;;5041865;28;20485;-72
2021/03/08 09:51:14;;;;;;;33.47;21.33;;;10.60;54.60;;;;;;5041617;28;20033;-66
2021/03/08 09:53:54;;;;;;;38.00;23.55;;;10.90;53.70;;;;;;5044402;28;20018;-67
2021/03/08 09:56:23;;;;;;;33.63;22.30;;;10.70;52.50;;;;;;5044333;28;20033;-73
2021/03/08 09:59:03;;;;;;;36.65;24.33;;;11.30;53.40;;;;;;5043700;28;20089;-66
2021/03/08 10:01:31;;;;;;;28.50;18.65;;;11.60;54.20;;;;;;5042669;28;20028;-66
2021/03/08 10:03:57;;;;;;;28.77;19.42;;;11.70;52.70;;;;;;5043697;28;20030;-72
2021/03/08 10:06:24;;;;;;;31.50;21.70;;;11.60;51.20;;;;;;5042139;28;20021;-72
2021/03/08 10:08:50;;;;;;;30.17;19.85;;;11.60;50.80;;;;;;5042863;28;20104;-68
2021/03/08 10:11:21;;;;;;;48.92;25.85;;;11.80;51.10;;;;;;5042005;28;20554;-67
2021/03/08 10:13:48;;;;;;;35.47;21.00;;;11.60;49.50;;;;;;5042465;28;20107;-71
2021/03/08 10:16:29;;;;;;;28.73;17.75;;;11.80;49.70;;;;;;5041513;28;20014;-75
2021/03/08 10:18:56;;;;;;;34.53;21.05;;;12.10;50.00;;;;;;5042896;28;20049;-71
2021/03/08 10:21:23;;;;;;;31.27;18.15;;;12.30;51.10;;;;;;5041657;28;20483;-67
2021/03/08 10:23:49;;;;;;;34.28;20.67;;;11.90;48.80;;;;;;5043171;28;20497;-66
2021/03/08 10:26:17;;;;;;;22.17;16.08;;;11.70;47.80;;;;;;5039081;28;20025;-69
2021/03/08 10:28:44;;;;;;;23.40;15.18;;;11.50;48.10;;;;;;5040500;28;20452;-68
2021/03/08 10:31:21;;;;;;;33.75;22.35;;;11.60;48.10;;;;;;5038365;28;20029;-66
2021/03/08 10:33:52;;;;;;;50.45;27.77;;;12.20;49.40;;;;;;5039392;28;20029;-75
2021/03/08 10:36:21;;;;;;;36.88;23.88;;;12.70;47.90;;;;;;5035807;28;20027;-67
2021/03/08 10:38:59;;;;;;;109.03;52.55;;;12.80;46.70;;;;;;5038247;28;20032;-68
2021/03/08 10:41:26;;;;;;;105.18;47.70;;;13.30;46.10;;;;;;5036863;28;20037;-67
2021/03/08 10:43:54;;;;;;;57.97;30.45;;;13.70;46.30;;;;;;5038426;28;20138;-69
2021/03/08 10:46:21;;;;;;;26.10;17.83;;;14.10;44.00;;;;;;5042638;28;20043;-74
2021/03/08 10:48:57;;;;;;;22.70;15.35;;;13.40;43.00;;;;;;5042171;28;20136;-69
2021/03/08 10:51:23;;;;;;;29.50;18.38;;;12.80;43.20;;;;;;5038502;28;20035;-73
2021/03/08 10:54:21;;;;;;;80.47;37.47;;;13.00;45.80;;;;;;5039954;28;20379;-69
2021/03/08 10:56:47;;;;;;;73.32;36.20;;;13.60;43.70;;;;;;5018112;28;20048;-75
2021/03/08 10:59:27;;;;;;;50.90;27.10;;;13.30;44.20;;;;;;5015843;28;20108;-71
2021/03/08 11:02:09;;;;;;;31.83;17.77;;;13.10;42.10;;;;;;5018034;28;20034;-74
2021/03/08 11:04:35;;;;;;;51.72;28.10;;;13.30;42.10;;;;;;5019523;28;20029;-68
2021/03/08 11:07:02;;;;;;;98.65;51.42;;;14.30;52.20;;;;;;5018202;28;20065;-70
2021/03/08 11:09:29;;;;;;;47.78;28.88;;;14.60;44.30;;;;;;5019448;28;20431;-68
2021/03/08 11:11:56;;;;;;;31.40;21.45;;;14.40;43.10;;;;;;5019749;28;20061;-68
2021/03/08 11:14:22;;;;;;;50.08;29.45;;;15.00;42.70;;;;;;5015961;28;20022;-67
2021/03/08 11:16:50;;;;;;;43.53;27.80;;;14.90;42.10;;;;;;5018010;28;20030;-67
2021/03/08 11:19:22;;;;;;;43.08;24.70;;;14.20;42.70;;;;;;5019065;28;20026;-74
2021/03/08 11:22:08;;;;;;;45.03;26.17;;;14.70;44.80;;;;;;5019831;28;20069;-69
2021/03/08 11:24:46;;;;;;;55.55;31.33;;;15.00;42.50;;;;;;5020050;28;20090;-75
2021/03/08 11:27:24;;;;;;;36.60;22.33;;;15.50;44.60;;;;;;5022022;28;20033;-75
2021/03/08 11:30:01;;;;;;;67.35;37.75;;;15.80;43.70;;;;;;5021261;28;20476;-67
2021/03/08 11:32:29;;;;;;;54.00;31.10;;;14.70;42.50;;;;;;5034397;28;20042;-75
2021/03/08 11:34:55;;;;;;;26.65;18.42;;;15.00;43.00;;;;;;5043057;28;20128;-69
2021/03/08 11:37:23;;;;;;;43.53;26.17;;;15.30;39.70;;;;;;5045478;28;20028;-73
2021/03/08 11:39:52;;;;;;;59.45;37.58;;;14.80;41.10;;;;;;5042966;28;20463;-74
2021/03/08 11:42:20;;;;;;;19.23;13.68;;;15.10;41.30;;;;;;5041780;28;20028;-69
2021/03/08 11:44:47;;;;;;;21.20;14.55;;;15.20;39.90;;;;;;5041866;28;20029;-67
2021/03/08 11:47:13;;;;;;;59.40;32.78;;;15.80;42.80;;;;;;5037201;28;20437;-72
2021/03/08 11:49:40;;;;;;;38.95;23.45;;;16.30;40.10;;;;;;5038443;28;20045;-68
2021/03/08 11:52:08;;;;;;;75.40;39.63;;;15.60;37.90;;;;;;5040729;28;20024;-69
2021/03/08 11:54:34;;;;;;;34.47;23.20;;;14.70;38.60;;;;;;5036775;28;20021;-66
2021/03/08 11:57:04;;;;;;;21.02;15.07;;;15.00;43.00;;;;;;5035328;28;20072;-67
2021/03/08 11:59:30;;;;;;;33.25;23.05;;;15.90;41.90;;;;;;5035845;28;20421;-68
2021/03/08 12:01:56;;;;;;;38.95;25.30;;;15.30;38.00;;;;;;5035847;28;20475;-66
2021/03/08 12:04:22;;;;;;;84.03;47.90;;;15.50;41.90;;;;;;5036339;28;20028;-66
2021/03/08 12:06:48;;;;;;;36.22;22.98;;;16.00;39.90;;;;;;5035032;28;20113;-74
2021/03/08 12:09:14;;;;;;;27.85;17.90;;;16.60;42.10;;;;;;5035751;28;20391;-68
2021/03/08 12:11:40;;;;;;;59.53;34.08;;;16.70;40.60;;;;;;5035506;28;20021;-68
2021/03/08 12:14:06;;;;;;;36.80;23.20;;;16.00;38.00;;;;;;5036274;28;20021;-72
2021/03/08 12:16:32;;;;;;;35.78;23.25;;;;;;;;;;5035691;28;20025;-68
2021/03/08 12:18:58;;;;;;;68.95;39.58;;;16.30;48.10;;;;;;5038448;28;20049;-69
2021/03/08 12:21:24;;;;;;;23.63;16.70;;;16.10;38.80;;;;;;5036764;28;20064;-66
2021/03/08 12:23:51;;;;;;;29.92;19.63;;;16.00;40.20;;;;;;5033468;28;20033;-66
2021/03/08 12:26:17;;;;;;;48.72;28.00;;;15.50;37.60;;;;;;5037518;28;20018;-66
2021/03/08 12:28:43;;;;;;;53.72;30.17;;;15.30;39.00;;;;;;5035623;28;20018;-68
2021/03/08 12:31:09;;;;;;;23.52;15.90;;;14.80;37.80;;;;;;5035552;28;20364;-73
2021/03/08 12:33:37;;;;;;;30.13;17.17;;;15.70;40.80;;;;;;5036828;28;20052;-68
2021/03/08 12:36:05;;;;;;;20.50;13.80;;;15.90;40.80;;;;;;5036499;28;20100;-68
2021/03/08 12:38:31;;;;;;;75.18;37.28;;;16.40;40.90;;;;;;5036421;28;20021;-67
2021/03/08 12:40:56;;;;;;;18.80;12.55;;;16.10;41.10;;;;;;5036291;28;20017;-67
2021/03/08 12:43:22;;;;;;;18.35;14.73;;;16.20;40.90;;;;;;5037009;28;20006;-72